Time;durP1;ratioP1;P1;durP2;ratioP2;P2;SDS_P1;SDS_P2;PMS_P1;PMS_P2;Temp;Humidity;BMP_temperature;BMP_pressure;BME280_temperature;BME280_humidity;BME280_pressure;Samples;Min_cycle;Max_cycle;Signal;HPM_P1;HPM_P2
2021/09/01 00:00:08;;;;;;;17.60;5.57;;;15.90;92.20;;;;;;4992241;28;20066;-70
2021/09/01 00:02:33;;;;;;;17.08;4.88;;;15.90;92.20;;;;;;4992466;28;20038;-70
2021/09/01 00:04:59;;;;;;;17.73;5.17;;;15.90;92.20;;;;;;4992674;28;20038;-70
2021/09/01 00:07:25;;;;;;;17.90;5.20;;;15.90;92.20;;;;;;4991845;28;20124;-70
2021/09/01 00:09:50;;;;;;;18.13;5.20;;;15.90;92.10;;;;;;4992317;28;20068;-69
2021/09/01 00:12:16;;;;;;;18.67;4.90;;;15.90;92.00;;;;;;4992242;28;20133;-69
2021/09/01 00:14:41;;;;;;;18.10;5.43;;;15.90;92.00;;;;;;4991678;28;20053;-70
2021/09/01 00:17:07;;;;;;;21.13;4.93;;;15.90;91.90;;;;;;4991035;28;20447;-70
2021/09/01 00:19:33;;;;;;;17.07;5.83;;;15.90;91.80;;;;;;4992447;28;20038;-70
2021/09/01 00:21:58;;;;;;;16.93;5.43;;;15.90;91.70;;;;;;4990476;28;20066;-70
2021/09/01 00:24:24;;;;;;;16.00;5.50;;;15.90;91.60;;;;;;4990614;28;20072;-69
2021/09/01 00:26:49;;;;;;;14.23;4.43;;;15.80;91.50;;;;;;4990906;28;20178;-70
2021/09/01 00:29:15;;;;;;;15.40;5.17;;;15.80;91.50;;;;;;4991356;28;20049;-70
2021/09/01 00:31:40;;;;;;;14.37;5.13;;;15.80;91.40;;;;;;4992081;28;20054;-70
2021/09/01 00:34:06;;;;;;;12.23;4.53;;;15.80;91.40;;;;;;4990811;28;20061;-70
2021/09/01 00:36:32;;;;;;;18.53;6.10;;;15.90;91.40;;;;;;4991517;28;20524;-69
2021/09/01 00:38:58;;;;;;;17.70;5.97;;;15.80;91.30;;;;;;4991177;28;20054;-70
2021/09/01 00:41:26;;;;;;;13.40;4.43;;;15.90;91.20;;;;;;4991590;28;20046;-70
2021/09/01 00:43:56;;;;;;;17.27;5.10;;;15.80;91.20;;;;;;4991944;28;20047;-70
2021/09/01 00:46:22;;;;;;;12.85;5.03;;;15.90;91.20;;;;;;4990548;28;20506;-70
2021/09/01 00:48:50;;;;;;;14.83;4.93;;;15.90;91.10;;;;;;4993415;28;20046;-70
2021/09/01 00:51:16;;;;;;;16.77;4.73;;;15.90;91.10;;;;;;4995887;28;20092;-69
2021/09/01 00:53:45;;;;;;;14.10;5.00;;;15.90;91.00;;;;;;4994875;28;20467;-70
2021/09/01 00:56:20;;;;;;;13.93;5.00;;;15.90;91.00;;;;;;4995254;28;20165;-70
2021/09/01 00:58:46;;;;;;;11.93;4.53;;;15.90;90.90;;;;;;4994380;28;20105;-70
2021/09/01 01:03:37;;;;;;;15.00;4.80;;;15.90;90.80;;;;;;4995494;28;20430;-70
2021/09/01 01:06:03;;;;;;;20.73;5.10;;;15.90;90.90;;;;;;4994394;28;20092;-69
2021/09/01 01:08:30;;;;;;;20.70;5.33;;;15.90;90.90;;;;;;4995464;28;20064;-70
2021/09/01 01:10:57;;;;;;;14.43;5.00;;;15.90;90.90;;;;;;4995144;28;20188;-70
2021/09/01 01:13:22;;;;;;;13.90;4.73;;;15.90;90.90;;;;;;4995252;28;20061;-70
2021/09/01 01:15:48;;;;;;;14.93;5.40;;;15.90;90.90;;;;;;4995932;28;20434;-70
2021/09/01 01:18:13;;;;;;;14.53;5.03;;;15.90;91.00;;;;;;4993261;28;20044;-70
2021/09/01 01:20:39;;;;;;;14.80;4.77;;;15.80;91.00;;;;;;4994581;28;20057;-70
2021/09/01 01:23:07;;;;;;;14.57;5.03;;;15.80;91.10;;;;;;4995388;28;20503;-68
2021/09/01 01:25:40;;;;;;;15.20;5.30;;;15.80;91.20;;;;;;4993395;28;20480;-68
2021/09/01 01:28:07;;;;;;;19.13;5.17;;;15.80;91.30;;;;;;4995090;28;20073;-70
2021/09/01 01:30:33;;;;;;;21.07;5.10;;;15.80;91.30;;;;;;4994624;28;20515;-70
2021/09/01 01:32:59;;;;;;;18.67;6.03;;;15.80;91.30;;;;;;4994872;28;20459;-69
2021/09/01 01:35:32;;;;;;;17.10;5.70;;;15.80;91.30;;;;;;4994975;28;20090;-70
2021/09/01 01:38:01;;;;;;;15.60;5.60;;;15.70;91.30;;;;;;4994541;28;20061;-70
2021/09/01 01:40:27;;;;;;;20.13;4.90;;;15.70;91.40;;;;;;4994496;28;20514;-70
2021/09/01 01:42:54;;;;;;;20.53;5.53;;;15.70;91.40;;;;;;4993723;28;20253;-70
2021/09/01 01:45:21;;;;;;;15.10;5.20;;;15.70;91.40;;;;;;4993064;28;20065;-70
2021/09/01 01:47:47;;;;;;;14.20;5.33;;;15.70;91.50;;;;;;4993363;28;20448;-70
2021/09/01 01:50:13;;;;;;;22.73;6.23;;;15.70;91.50;;;;;;4994572;28;20049;-70
2021/09/01 01:52:39;;;;;;;16.23;5.03;;;15.70;91.50;;;;;;4994313;28;20042;-69
2021/09/01 01:55:06;;;;;;;17.77;6.17;;;15.70;91.50;;;;;;4994511;28;20416;-70
2021/09/01 01:57:32;;;;;;;16.67;5.27;;;15.70;91.60;;;;;;4994701;28;20526;-70
2021/09/01 01:59:58;;;;;;;20.27;5.93;;;15.70;91.60;;;;;;4993176;28;20047;-70
2021/09/01 02:02:30;;;;;;;15.13;5.53;;;15.70;91.60;;;;;;4994771;28;20492;-70
2021/09/01 02:04:56;;;;;;;19.23;5.80;;;15.70;91.60;;;;;;4995227;28;20050;-69
2021/09/01 02:07:21;;;;;;;16.93;5.60;;;15.70;91.70;;;;;;4993577;28;20068;-70
2021/09/01 02:09:47;;;;;;;16.00;5.83;;;15.70;91.80;;;;;;4994942;28;20550;-69
2021/09/01 02:12:12;;;;;;;12.37;5.20;;;15.70;91.80;;;;;;4993208;28;20145;-70
2021/09/01 02:14:38;;;;;;;15.53;5.23;;;15.70;91.80;;;;;;4993833;28;20056;-70
2021/09/01 02:17:04;;;;;;;17.83;5.27;;;15.70;91.90;;;;;;4994458;28;20069;-69
2021/09/01 02:19:29;;;;;;;17.10;5.63;;;15.70;91.90;;;;;;4993975;28;20064;-70
2021/09/01 02:21:55;;;;;;;18.27;5.23;;;15.70;91.80;;;;;;4993738;28;20112;-69
2021/09/01 02:24:20;;;;;;;15.13;5.47;;;15.70;91.90;;;;;;4994008;28;20050;-70
2021/09/01 02:26:46;;;;;;;14.63;5.63;;;15.70;91.90;;;;;;4994177;28;20046;-70
2021/09/01 02:29:11;;;;;;;17.87;5.40;;;15.70;92.00;;;;;;4993467;28;20361;-70
2021/09/01 02:31:37;;;;;;;14.70;4.87;;;15.70;92.00;;;;;;4993057;28;20109;-70
2021/09/01 02:34:03;;;;;;;15.20;5.57;;;15.60;92.00;;;;;;4993551;28;20066;-70
2021/09/01 02:36:28;;;;;;;15.50;5.50;;;15.70;92.10;;;;;;4993512;28;20054;-70
2021/09/01 02:38:54;;;;;;;18.10;6.23;;;15.70;92.10;;;;;;4994179;28;20052;-70
2021/09/01 02:41:22;;;;;;;16.53;6.00;;;15.60;92.10;;;;;;4993373;28;20060;-70
2021/09/01 02:43:48;;;;;;;14.23;5.17;;;15.60;92.20;;;;;;4992567;28;20502;-70
2021/09/01 02:46:13;;;;;;;17.80;5.90;;;15.60;92.20;;;;;;4993884;28;20035;-70
2021/09/01 02:48:39;;;;;;;17.10;5.03;;;15.60;92.10;;;;;;4992242;28;20050;-70
2021/09/01 02:51:04;;;;;;;15.83;4.97;;;15.60;92.10;;;;;;4993534;28;20054;-70
2021/09/01 02:53:30;;;;;;;14.17;5.37;;;15.60;92.10;;;;;;4993549;28;20145;-70
2021/09/01 02:55:56;;;;;;;15.63;4.90;;;15.60;92.10;;;;;;4993071;28;20057;-70
2021/09/01 02:58:21;;;;;;;20.43;5.20;;;15.60;92.10;;;;;;4993122;28;20115;-70
2021/09/01 03:00:47;;;;;;;14.50;4.23;;;15.60;92.10;;;;;;4993901;28;20113;-70
2021/09/01 03:03:12;;;;;;;18.07;5.13;;;15.60;92.10;;;;;;4991792;28;20158;-70
2021/09/01 03:05:38;;;;;;;16.33;5.30;;;15.60;92.10;;;;;;4993504;28;20053;-70
2021/09/01 03:08:04;;;;;;;15.57;5.07;;;15.60;92.10;;;;;;4993420;28;20046;-70
2021/09/01 03:10:29;;;;;;;13.83;4.60;;;15.60;92.10;;;;;;4991046;28;20038;-70
2021/09/01 03:12:55;;;;;;;14.07;4.90;;;15.60;92.10;;;;;;4993506;28;20050;-70
2021/09/01 03:15:20;;;;;;;14.33;4.77;;;15.60;92.10;;;;;;4991642;28;20046;-70
2021/09/01 03:17:46;;;;;;;15.70;5.50;;;15.60;92.20;;;;;;4992590;28;20054;-70
2021/09/01 03:20:11;;;;;;;20.03;5.07;;;15.60;92.20;;;;;;4993258;28;20053;-70
2021/09/01 03:22:40;;;;;;;15.73;5.07;;;15.60;92.20;;;;;;4993402;28;20050;-70
2021/09/01 03:25:06;;;;;;;15.30;5.33;;;15.60;92.20;;;;;;4992619;28;20069;-69
2021/09/01 03:27:32;;;;;;;14.30;5.00;;;15.60;92.20;;;;;;4993122;28;20142;-70
2021/09/01 03:29:58;;;;;;;17.27;5.27;;;15.60;92.30;;;;;;4993497;28;20125;-70
2021/09/01 03:32:23;;;;;;;15.40;5.03;;;15.60;92.30;;;;;;4991988;28;20483;-69
2021/09/01 03:34:49;;;;;;;15.37;4.97;;;15.60;92.30;;;;;;4991428;28;20112;-69
2021/09/01 03:37:14;;;;;;;12.03;4.47;;;15.60;92.40;;;;;;4992041;28;20039;-70
2021/09/01 03:39:40;;;;;;;16.00;4.80;;;15.60;92.30;;;;;;4992877;28;20407;-70
2021/09/01 03:42:07;;;;;;;14.87;4.90;;;15.60;92.30;;;;;;4992662;28;20050;-69
2021/09/01 03:44:33;;;;;;;19.63;5.57;;;15.60;92.30;;;;;;4991292;28;20050;-70
2021/09/01 03:46:59;;;;;;;17.87;4.63;;;15.60;92.30;;;;;;4992579;28;20047;-70
2021/09/01 03:49:24;;;;;;;14.83;4.57;;;15.60;92.40;;;;;;4991337;28;20108;-70
2021/09/01 03:51:50;;;;;;;14.43;5.00;;;15.60;92.40;;;;;;4990990;28;20050;-70
2021/09/01 03:54:16;;;;;;;14.40;5.03;;;15.60;92.40;;;;;;4991007;28;20061;-70
2021/09/01 03:56:41;;;;;;;14.70;4.27;;;15.60;92.40;;;;;;4992729;28;20122;-70
2021/09/01 03:59:08;;;;;;;14.20;5.40;;;15.60;92.50;;;;;;4991740;28;20038;-70
2021/09/01 04:01:35;;;;;;;12.50;5.03;;;15.50;92.50;;;;;;4992436;28;20085;-70
2021/09/01 04:04:05;;;;;;;15.03;5.00;;;15.50;92.50;;;;;;4992445;28;20054;-70
2021/09/01 04:06:31;;;;;;;18.47;5.43;;;15.50;92.50;;;;;;4991660;28;20073;-69
2021/09/01 04:08:57;;;;;;;14.90;4.60;;;15.50;92.50;;;;;;4991231;28;20050;-69
2021/09/01 04:11:23;;;;;;;17.17;5.47;;;15.50;92.50;;;;;;4992074;28;20043;-69
2021/09/01 04:13:49;;;;;;;16.70;5.40;;;15.50;92.60;;;;;;4991665;28;20057;-70
2021/09/01 04:16:15;;;;;;;13.27;5.03;;;15.60;92.70;;;;;;4990650;28;20046;-70
2021/09/01 04:18:40;;;;;;;18.73;5.00;;;15.60;92.70;;;;;;4991011;28;20061;-70
2021/09/01 04:21:06;;;;;;;11.27;4.47;;;15.60;92.70;;;;;;4991806;28;20039;-69
2021/09/01 04:23:32;;;;;;;16.90;5.27;;;15.60;92.70;;;;;;4990232;28;20474;-70
2021/09/01 04:25:57;;;;;;;17.70;5.73;;;15.60;92.70;;;;;;4992179;28;20100;-69
2021/09/01 04:28:23;;;;;;;17.00;5.23;;;15.50;92.70;;;;;;4991068;28;20120;-70
2021/09/01 04:30:49;;;;;;;15.20;5.77;;;15.60;92.80;;;;;;4990714;28;20049;-69
2021/09/01 04:33:14;;;;;;;14.00;4.80;;;15.60;92.70;;;;;;4991620;28;20112;-70
2021/09/01 04:35:40;;;;;;;16.03;4.87;;;15.50;92.70;;;;;;4991563;28;20097;-70
2021/09/01 04:38:06;;;;;;;14.53;5.13;;;15.60;92.80;;;;;;4992225;28;20567;-70
2021/09/01 04:40:32;;;;;;;11.67;4.30;;;15.60;92.80;;;;;;4991186;28;20042;-70
2021/09/01 04:42:57;;;;;;;16.60;5.27;;;15.60;92.80;;;;;;4991286;28;20138;-69
2021/09/01 04:45:23;;;;;;;14.63;5.63;;;15.60;92.70;;;;;;4989800;28;20458;-70
2021/09/01 04:47:49;;;;;;;9.90;4.93;;;15.60;92.80;;;;;;4990507;28;20082;-70
2021/09/01 04:50:15;;;;;;;17.23;4.47;;;15.60;92.80;;;;;;4990963;28;20038;-70
2021/09/01 04:52:41;;;;;;;13.90;4.80;;;15.60;92.90;;;;;;4991327;28;20042;-70
2021/09/01 04:55:08;;;;;;;13.77;4.53;;;15.60;92.80;;;;;;4989539;28;20082;-69
2021/09/01 04:57:34;;;;;;;14.53;5.07;;;15.60;92.90;;;;;;4990996;28;20124;-70
2021/09/01 04:59:59;;;;;;;14.67;4.90;;;15.50;92.90;;;;;;4991190;28;20470;-70
2021/09/01 05:02:25;;;;;;;17.53;5.07;;;15.60;93.00;;;;;;4988980;28;20113;-69
2021/09/01 05:04:51;;;;;;;14.07;5.23;;;15.60;93.00;;;;;;4991619;28;20388;-69
2021/09/01 05:07:17;;;;;;;14.70;6.07;;;15.50;93.00;;;;;;4991633;28;20450;-70
2021/09/01 05:09:42;;;;;;;16.53;5.20;;;15.50;93.00;;;;;;4989878;28;20054;-70
2021/09/01 05:12:08;;;;;;;10.63;5.17;;;15.60;93.10;;;;;;4991116;28;20065;-70
2021/09/01 05:14:34;;;;;;;12.83;4.87;;;15.60;93.00;;;;;;4991935;28;20052;-70
2021/09/01 05:16:59;;;;;;;14.10;4.93;;;15.60;93.00;;;;;;4990621;28;20057;-69
2021/09/01 05:19:25;;;;;;;14.80;5.40;;;15.60;93.10;;;;;;4991224;28;20087;-69
2021/09/01 05:21:52;;;;;;;16.27;4.90;;;15.60;93.10;;;;;;4991311;28;20487;-70
2021/09/01 05:24:33;;;;;;;13.97;4.83;;;15.60;93.10;;;;;;4990638;28;20046;-69
2021/09/01 05:27:10;;;;;;;15.77;5.68;;;15.60;93.00;;;;;;4990017;28;20047;-70
2021/09/01 05:29:46;;;;;;;17.30;5.90;;;15.60;93.10;;;;;;4991642;28;20061;-69
2021/09/01 05:32:19;;;;;;;15.37;5.67;;;15.70;93.10;;;;;;4990954;28;20177;-69
2021/09/01 05:34:47;;;;;;;17.37;5.17;;;15.70;93.10;;;;;;4991551;28;20140;-69
2021/09/01 05:37:13;;;;;;;16.83;5.27;;;15.70;93.10;;;;;;4993969;28;20058;-69
2021/09/01 05:39:47;;;;;;;14.93;5.43;;;15.70;93.10;;;;;;4994658;28;20042;-70
2021/09/01 05:42:15;;;;;;;13.37;5.07;;;15.70;93.10;;;;;;4994599;28;20392;-69
2021/09/01 05:44:42;;;;;;;13.27;5.10;;;15.70;93.20;;;;;;4994391;28;20045;-69
2021/09/01 05:47:08;;;;;;;14.80;5.60;;;15.70;93.20;;;;;;4994517;28;20046;-70
2021/09/01 05:49:35;;;;;;;13.27;5.43;;;15.70;93.30;;;;;;4994943;28;20042;-70
2021/09/01 05:52:02;;;;;;;14.50;4.83;;;15.70;93.30;;;;;;4993876;28;20042;-71
2021/09/01 05:54:28;;;;;;;14.77;5.43;;;15.70;93.30;;;;;;4994347;28;20069;-69
2021/09/01 05:56:58;;;;;;;18.83;5.83;;;15.70;93.20;;;;;;4994333;28;20523;-69
2021/09/01 05:59:27;;;;;;;14.03;4.47;;;15.70;93.30;;;;;;4992135;28;20074;-70
2021/09/01 06:02:02;;;;;;;15.50;5.13;;;15.80;93.30;;;;;;4990441;28;20122;-69
2021/09/01 06:04:33;;;;;;;13.50;5.37;;;15.80;93.30;;;;;;4992722;28;20046;-70
2021/09/01 06:06:59;;;;;;;13.35;5.43;;;15.80;93.30;;;;;;4993688;28;20061;-70
2021/09/01 06:09:27;;;;;;;12.93;5.47;;;15.80;93.30;;;;;;4993996;28;20034;-70
2021/09/01 06:11:54;;;;;;;14.60;5.30;;;15.80;93.40;;;;;;4993269;28;20088;-71
2021/09/01 06:14:20;;;;;;;15.77;5.30;;;15.80;93.40;;;;;;4992536;28;20447;-69
2021/09/01 06:16:45;;;;;;;13.03;5.13;;;15.80;93.40;;;;;;4992352;28;20058;-70
2021/09/01 06:19:11;;;;;;;12.17;4.87;;;15.80;93.40;;;;;;4993293;28;20835;-70
2021/09/01 06:21:36;;;;;;;11.53;5.17;;;15.80;93.30;;;;;;4993359;28;20121;-70
2021/09/01 06:24:04;;;;;;;16.77;6.30;;;15.80;93.30;;;;;;4994483;28;20069;-69
2021/09/01 06:26:29;;;;;;;19.93;5.77;;;15.90;93.20;;;;;;4992936;28;20053;-70
2021/09/01 06:28:55;;;;;;;14.37;5.83;;;15.80;93.20;;;;;;4993580;28;20046;-70
2021/09/01 06:31:20;;;;;;;14.97;4.47;;;15.80;93.20;;;;;;4993554;28;20031;-70
2021/09/01 06:33:46;;;;;;;15.10;5.30;;;15.90;93.20;;;;;;4992448;28;20149;-70
2021/09/01 06:36:12;;;;;;;16.03;5.43;;;15.90;93.20;;;;;;4993192;28;20039;-71
2021/09/01 06:38:38;;;;;;;16.87;5.10;;;15.90;93.20;;;;;;4993576;28;20073;-69
2021/09/01 06:41:03;;;;;;;18.00;5.43;;;15.90;93.10;;;;;;4992962;28;20050;-69
2021/09/01 06:43:29;;;;;;;16.40;6.20;;;15.90;93.10;;;;;;4993297;28;20042;-69
2021/09/01 06:45:54;;;;;;;14.70;4.50;;;16.00;93.00;;;;;;4993039;28;20046;-69
2021/09/01 06:48:21;;;;;;;14.03;5.37;;;16.00;93.00;;;;;;4990505;28;20054;-69
2021/09/01 06:50:46;;;;;;;13.50;5.20;;;16.00;92.90;;;;;;4993734;28;20054;-69
2021/09/01 06:53:12;;;;;;;15.57;5.37;;;16.00;92.90;;;;;;4992689;28;20057;-69
2021/09/01 06:55:39;;;;;;;13.63;4.77;;;16.00;92.90;;;;;;4992933;28;20042;-69
2021/09/01 06:58:17;;;;;;;15.10;4.77;;;16.10;92.90;;;;;;4992771;28;20046;-70
2021/09/01 07:00:42;;;;;;;13.27;5.60;;;16.10;92.90;;;;;;4989550;28;20097;-71
2021/09/01 07:03:08;;;;;;;14.40;4.67;;;16.10;92.80;;;;;;4988495;28;20085;-70
2021/09/01 07:05:33;;;;;;;14.73;5.40;;;16.10;92.70;;;;;;4990217;28;20047;-69
2021/09/01 07:07:59;;;;;;;11.70;4.63;;;16.20;92.70;;;;;;4990392;28;20042;-69
2021/09/01 07:10:24;;;;;;;19.00;5.47;;;16.20;92.60;;;;;;4987776;28;20056;-69
2021/09/01 07:12:50;;;;;;;16.17;5.80;;;16.30;92.50;;;;;;4989959;28;20440;-69
2021/09/01 07:15:15;;;;;;;14.50;4.80;;;16.40;92.50;;;;;;4989031;28;20153;-69
2021/09/01 07:17:42;;;;;;;14.17;5.73;;;16.40;92.40;;;;;;4984395;28;20050;-69
2021/09/01 07:20:09;;;;;;;16.67;5.23;;;16.50;92.40;;;;;;4982743;28;20112;-69
2021/09/01 07:22:36;;;;;;;15.40;4.63;;;16.50;92.20;;;;;;4988750;28;20145;-69
2021/09/01 07:25:04;;;;;;;11.10;4.40;;;16.60;92.10;;;;;;4989879;28;20043;-69
2021/09/01 07:27:29;;;;;;;14.17;5.50;;;16.60;92.00;;;;;;4988897;28;20086;-69
2021/09/01 07:29:55;;;;;;;15.63;5.57;;;16.70;91.90;;;;;;4989070;28;20096;-68
2021/09/01 07:32:20;;;;;;;13.33;5.17;;;16.70;92.20;;;;;;4988942;28;20166;-68
2021/09/01 07:34:46;;;;;;;10.80;4.93;;;16.80;91.80;;;;;;4990160;28;20109;-69
2021/09/01 07:37:12;;;;;;;16.00;6.17;;;16.80;91.60;;;;;;4988643;28;20038;-69
2021/09/01 07:39:38;;;;;;;16.77;5.93;;;16.90;91.60;;;;;;4987900;28;20137;-69
2021/09/01 07:42:04;;;;;;;12.23;4.57;;;16.90;91.90;;;;;;4989742;28;20034;-71
2021/09/01 07:44:29;;;;;;;12.47;4.80;;;17.00;91.40;;;;;;4987659;28;20128;-70
2021/09/01 07:46:55;;;;;;;17.30;5.20;;;17.00;91.30;;;;;;4989068;28;20050;-69
2021/09/01 07:49:20;;;;;;;15.77;5.30;;;17.10;91.20;;;;;;4988448;28;20050;-69
2021/09/01 07:51:47;;;;;;;13.73;5.57;;;17.10;90.80;;;;;;4989102;28;20050;-69
2021/09/01 07:54:13;;;;;;;13.73;4.77;;;17.10;90.70;;;;;;4989091;28;20046;-67
2021/09/01 07:56:39;;;;;;;18.67;5.60;;;17.10;90.70;;;;;;4988880;28;20062;-73
2021/09/01 07:59:04;;;;;;;16.23;4.53;;;17.10;90.70;;;;;;4987361;28;20128;-67
2021/09/01 08:01:30;;;;;;;14.33;4.67;;;17.20;90.70;;;;;;4989433;28;20038;-68
2021/09/01 08:03:55;;;;;;;15.57;5.30;;;17.30;90.70;;;;;;4989143;28;20471;-68
2021/09/01 08:06:21;;;;;;;15.17;5.03;;;17.30;90.50;;;;;;4986537;28;20506;-68
2021/09/01 08:08:47;;;;;;;16.03;5.27;;;17.40;90.40;;;;;;4989407;28;20054;-68
2021/09/01 08:11:13;;;;;;;10.30;4.80;;;17.50;90.20;;;;;;4988544;28;20047;-69
2021/09/01 08:13:39;;;;;;;15.17;5.00;;;17.60;90.10;;;;;;4988254;28;20038;-69
2021/09/01 08:16:05;;;;;;;12.97;4.53;;;17.60;89.50;;;;;;4988787;28;20398;-68
2021/09/01 08:18:31;;;;;;;13.57;5.00;;;17.70;89.10;;;;;;4987450;28;20042;-68
2021/09/01 08:20:57;;;;;;;14.27;4.13;;;17.70;88.40;;;;;;4987665;28;20049;-69
2021/09/01 08:23:23;;;;;;;13.80;5.10;;;17.70;88.20;;;;;;4988322;28;20043;-68
2021/09/01 08:25:48;;;;;;;10.83;4.33;;;17.80;88.60;;;;;;4987195;28;20786;-69
2021/09/01 08:28:14;;;;;;;12.37;4.50;;;17.80;88.80;;;;;;4988739;28;20085;-68
2021/09/01 08:30:39;;;;;;;15.80;4.93;;;17.80;89.00;;;;;;4988037;28;20054;-67
2021/09/01 08:33:05;;;;;;;14.20;5.50;;;17.90;89.20;;;;;;4988214;28;20061;-67
2021/09/01 08:35:31;;;;;;;12.47;4.37;;;17.90;89.50;;;;;;4989240;28;20057;-67
2021/09/01 08:37:56;;;;;;;14.10;5.47;;;17.90;89.60;;;;;;4971109;28;20048;-68
2021/09/01 08:40:22;;;;;;;20.33;4.93;;;17.90;89.50;;;;;;4987764;28;20043;-68
2021/09/01 08:42:48;;;;;;;17.03;5.27;;;18.00;89.60;;;;;;4988363;28;20049;-69
2021/09/01 08:45:14;;;;;;;12.93;4.07;;;18.00;89.60;;;;;;4971368;28;20102;-68
2021/09/01 08:47:40;;;;;;;11.20;5.00;;;18.00;89.00;;;;;;4971122;28;20054;-68
2021/09/01 08:50:07;;;;;;;17.93;5.00;;;18.10;88.60;;;;;;4990002;28;20112;-69
2021/09/01 08:52:36;;;;;;;12.17;5.33;;;18.10;88.10;;;;;;4974591;28;20089;-69
2021/09/01 08:55:03;;;;;;;14.30;4.90;;;18.20;87.60;;;;;;4991539;28;20125;-69
2021/09/01 08:57:28;;;;;;;15.03;4.70;;;18.20;87.10;;;;;;4973813;28;20046;-69
2021/09/01 08:59:57;;;;;;;15.83;4.53;;;18.30;86.70;;;;;;4991840;28;20144;-69
2021/09/01 09:02:29;;;;;;;11.87;4.50;;;18.30;86.10;;;;;;4990813;28;20086;-69
2021/09/01 09:04:56;;;;;;;12.70;4.43;;;18.30;85.60;;;;;;4974431;28;20503;-69
2021/09/01 09:07:24;;;;;;;16.27;4.63;;;18.30;85.10;;;;;;4991691;28;20057;-69
2021/09/01 09:09:50;;;;;;;13.77;4.77;;;18.30;84.70;;;;;;4993004;28;20463;-68
2021/09/01 09:12:17;;;;;;;13.70;4.90;;;18.40;84.40;;;;;;4978072;28;20061;-68
2021/09/01 09:14:49;;;;;;;12.47;5.30;;;18.40;84.20;;;;;;4994785;28;20046;-70
2021/09/01 09:17:20;;;;;;;12.20;4.97;;;18.50;83.90;;;;;;4954778;28;20058;-71
2021/09/01 09:19:53;;;;;;;14.82;4.22;;;18.50;83.60;;;;;;4972019;28;20523;-73
2021/09/01 09:22:26;;;;;;;14.17;4.80;;;18.50;83.00;;;;;;4953982;28;20058;-72
2021/09/01 09:25:10;;;;;;;15.70;5.13;;;18.60;82.80;;;;;;4954872;28;20378;-72
2021/09/01 09:27:55;;;;;;;15.50;4.93;;;18.60;82.50;;;;;;4978334;28;20050;-71
2021/09/01 09:30:23;;;;;;;14.20;4.60;;;18.60;82.50;;;;;;4991067;28;20114;-72
2021/09/01 09:32:55;;;;;;;13.60;4.40;;;18.60;82.00;;;;;;4973853;28;20403;-72
2021/09/01 09:35:21;;;;;;;14.37;4.53;;;18.70;81.70;;;;;;4991536;28;20518;-72
2021/09/01 09:38:02;;;;;;;12.53;4.27;;;18.60;81.50;;;;;;4973868;28;20085;-72
2021/09/01 09:40:30;;;;;;;13.37;4.83;;;18.60;81.50;;;;;;4991675;28;20042;-72
2021/09/01 09:42:56;;;;;;;12.80;5.00;;;18.60;81.80;;;;;;4971448;28;20046;-72
2021/09/01 09:45:24;;;;;;;14.13;4.73;;;18.60;81.00;;;;;;4971232;28;20054;-72
2021/09/01 09:47:52;;;;;;;15.63;4.77;;;18.60;80.60;;;;;;4972142;28;20046;-71
2021/09/01 09:50:18;;;;;;;16.87;4.53;;;18.60;80.50;;;;;;4970557;28;20039;-72
2021/09/01 09:52:44;;;;;;;15.57;4.90;;;18.50;81.40;;;;;;4971302;28;20136;-71
2021/09/01 09:55:14;;;;;;;16.13;4.57;;;18.50;81.60;;;;;;4954028;28;20042;-72
2021/09/01 09:57:58;;;;;;;15.18;4.90;;;18.50;81.90;;;;;;4971668;28;20051;-71
2021/09/01 10:00:25;;;;;;;12.83;4.40;;;18.60;82.30;;;;;;4970679;28;20035;-72
2021/09/01 10:02:51;;;;;;;14.57;4.57;;;18.60;82.10;;;;;;4954753;28;20066;-71
2021/09/01 10:05:24;;;;;;;12.27;4.35;;;18.60;82.30;;;;;;4970558;28;20642;-72
2021/09/01 10:07:50;;;;;;;13.50;4.33;;;18.70;82.90;;;;;;4971944;28;20046;-72
2021/09/01 10:10:16;;;;;;;16.93;4.67;;;18.70;82.60;;;;;;4971249;28;20079;-71
2021/09/01 10:12:47;;;;;;;13.87;4.90;;;18.80;82.30;;;;;;4970994;28;20125;-71
2021/09/01 10:15:17;;;;;;;10.82;4.60;;;18.80;82.40;;;;;;4971408;28;20555;-72
2021/09/01 10:17:46;;;;;;;10.30;4.67;;;18.90;82.90;;;;;;4954586;28;20066;-71
2021/09/01 10:20:16;;;;;;;15.93;4.43;;;18.90;83.40;;;;;;4970749;28;20046;-71
2021/09/01 10:22:42;;;;;;;15.17;5.50;;;19.00;82.80;;;;;;4974499;28;20399;-70
2021/09/01 10:25:08;;;;;;;12.10;4.80;;;19.10;82.40;;;;;;4973533;28;20043;-71
2021/09/01 10:27:34;;;;;;;14.27;4.20;;;19.10;81.90;;;;;;4957077;28;20514;-71
2021/09/01 10:30:05;;;;;;;13.30;4.73;;;19.10;81.30;;;;;;4957042;28;20046;-72
2021/09/01 10:32:51;;;;;;;13.47;4.30;;;19.00;80.70;;;;;;4972924;28;20089;-71
2021/09/01 10:35:17;;;;;;;14.27;4.90;;;19.00;81.40;;;;;;4973799;28;20057;-72
2021/09/01 10:37:49;;;;;;;15.83;4.73;;;19.00;81.10;;;;;;4956841;28;20054;-72
2021/09/01 10:40:55;;;;;;;10.23;4.03;;;18.90;80.10;;;;;;4973396;28;20039;-72
2021/09/01 10:43:21;;;;;;;11.77;4.40;;;18.90;79.10;;;;;;4935456;28;20087;-72
2021/09/01 10:45:46;;;;;;;12.10;4.60;;;18.80;80.20;;;;;;4974830;28;20129;-72
2021/09/01 10:48:12;;;;;;;13.17;4.47;;;18.80;80.20;;;;;;4956144;28;20050;-72
2021/09/01 10:50:46;;;;;;;12.13;4.30;;;18.70;80.00;;;;;;4974527;28;20466;-72
2021/09/01 10:53:18;;;;;;;13.77;4.70;;;18.70;80.60;;;;;;4974124;28;20046;-72
2021/09/01 10:55:48;;;;;;;18.93;4.93;;;18.60;80.80;;;;;;4974291;28;20042;-71
2021/09/01 10:58:24;;;;;;;12.67;4.30;;;18.60;81.20;;;;;;4973440;28;20043;-71
2021/09/01 11:00:58;;;;;;;15.87;4.83;;;18.60;81.50;;;;;;4973551;28;20057;-71
2021/09/01 11:03:35;;;;;;;12.97;4.57;;;18.50;81.70;;;;;;4973930;28;20133;-71
2021/09/01 11:06:13;;;;;;;11.70;4.20;;;18.40;82.10;;;;;;4974400;28;20047;-71
2021/09/01 11:08:57;;;;;;;12.63;4.40;;;18.40;81.80;;;;;;4956086;28;20077;-71
2021/09/01 11:11:22;;;;;;;13.63;4.27;;;18.40;81.90;;;;;;4973276;28;20487;-71
2021/09/01 11:13:48;;;;;;;13.93;4.70;;;18.30;81.90;;;;;;4972867;28;20038;-72
2021/09/01 11:16:21;;;;;;;12.50;4.43;;;18.30;82.40;;;;;;4972645;28;20129;-73
2021/09/01 11:19:07;;;;;;;13.60;4.63;;;18.30;82.90;;;;;;4956883;28;20141;-72
2021/09/01 11:21:38;;;;;;;16.60;4.03;;;18.30;82.90;;;;;;4955781;28;20042;-71
2021/09/01 11:24:06;;;;;;;13.65;4.13;;;18.40;82.70;;;;;;4974016;28;20069;-71
2021/09/01 11:26:33;;;;;;;13.83;4.30;;;18.40;82.70;;;;;;4973629;28;20047;-71
2021/09/01 11:29:00;;;;;;;16.30;4.43;;;18.40;82.60;;;;;;4973216;28;20054;-71
2021/09/01 11:31:26;;;;;;;14.47;4.73;;;18.40;82.70;;;;;;4973849;28;20043;-71
2021/09/01 11:33:56;;;;;;;9.97;4.07;;;18.40;82.60;;;;;;4981270;28;20054;-70
2021/09/01 11:36:27;;;;;;;13.30;4.37;;;18.40;82.90;;;;;;4992107;28;20503;-71
2021/09/01 11:38:55;;;;;;;15.30;5.65;;;18.40;83.60;;;;;;4993372;28;20070;-70
2021/09/01 11:41:22;;;;;;;12.50;3.70;;;18.30;83.40;;;;;;4992837;28;20510;-71
2021/09/01 11:43:56;;;;;;;11.30;4.80;;;18.30;83.50;;;;;;4975136;28;20046;-71
2021/09/01 11:46:21;;;;;;;14.60;4.57;;;18.20;83.80;;;;;;4992798;28;20069;-71
2021/09/01 11:48:47;;;;;;;12.97;4.83;;;18.10;84.20;;;;;;4992663;28;20542;-71
2021/09/01 11:51:12;;;;;;;13.67;4.43;;;18.10;84.80;;;;;;4991950;28;20053;-71
2021/09/01 11:53:40;;;;;;;11.40;4.67;;;18.10;84.90;;;;;;4992901;28;20042;-71
2021/09/01 11:56:07;;;;;;;17.90;4.10;;;18.10;84.90;;;;;;4992851;28;20058;-71
2021/09/01 11:58:33;;;;;;;15.27;4.50;;;18.10;84.90;;;;;;4992141;28;20391;-71
2021/09/01 12:01:03;;;;;;;9.40;3.73;;;18.10;84.80;;;;;;4988146;28;20038;-68
2021/09/01 12:03:29;;;;;;;13.97;4.63;;;18.10;85.00;;;;;;4988541;28;20393;-70
2021/09/01 12:06:10;;;;;;;13.07;4.03;;;18.10;85.00;;;;;;4988548;28;20046;-69
2021/09/01 12:08:50;;;;;;;16.73;5.10;;;18.10;84.90;;;;;;4989047;28;20124;-69
2021/09/01 12:11:16;;;;;;;15.20;4.13;;;18.20;84.90;;;;;;4988566;28;20372;-69
2021/09/01 12:13:48;;;;;;;12.73;4.10;;;18.10;84.80;;;;;;4988639;28;20132;-69
2021/09/01 12:16:14;;;;;;;15.52;3.88;;;18.10;84.80;;;;;;4987018;28;20085;-69
2021/09/01 12:18:54;;;;;;;13.27;4.07;;;18.20;84.90;;;;;;4988571;28;20054;-69
2021/09/01 12:21:21;;;;;;;11.57;3.73;;;18.20;84.90;;;;;;4988678;28;20124;-68
2021/09/01 12:24:10;;;;;;;12.33;3.50;;;18.20;85.00;;;;;;4988458;28;20049;-69
2021/09/01 12:27:05;;;;;;;13.20;4.40;;;18.20;84.90;;;;;;4987902;28;20058;-69
2021/09/01 12:29:36;;;;;;;10.73;3.70;;;18.20;85.30;;;;;;4988280;28;20445;-69
2021/09/01 12:32:07;;;;;;;10.43;3.67;;;18.20;85.60;;;;;;4988911;28;20388;-68
2021/09/01 12:34:36;;;;;;;11.47;3.73;;;18.20;84.90;;;;;;4992095;28;20415;-68
2021/09/01 12:37:07;;;;;;;9.97;4.17;;;18.20;85.00;;;;;;4992374;28;20056;-68
2021/09/01 12:39:44;;;;;;;8.37;3.60;;;18.20;84.90;;;;;;4991408;28;20062;-69
2021/09/01 12:42:26;;;;;;;9.50;3.73;;;18.20;84.40;;;;;;4991635;28;20124;-69